sensor_id;sensor_type;location;lat;lon;timestamp;P1;durP1;ratioP1;P2;durP2;ratioP2
73575;SDS011;61859;49.204;8.140;2023-04-25T00:02:07;3.47;;;3.10;;
73575;SDS011;61859;49.204;8.140;2023-04-25T00:04:33;3.50;;;3.20;;
73575;SDS011;61859;49.204;8.140;2023-04-25T00:06:59;3.70;;;3.13;;
73575;SDS011;61859;49.204;8.140;2023-04-25T00:09:28;4.10;;;2.93;;
73575;SDS011;61859;49.204;8.140;2023-04-25T00:11:55;3.87;;;2.70;;
73575;SDS011;61859;49.204;8.140;2023-04-25T00:14:20;3.40;;;3.10;;
73575;SDS011;61859;49.204;8.140;2023-04-25T00:16:47;3.83;;;2.70;;
73575;SDS011;61859;49.204;8.140;2023-04-25T00:19:13;3.83;;;2.90;;
73575;SDS011;61859;49.204;8.140;2023-04-25T00:21:39;3.40;;;3.10;;
73575;SDS011;61859;49.204;8.140;2023-04-25T00:24:06;4.17;;;3.50;;
73575;SDS011;61859;49.204;8.140;2023-04-25T00:26:33;5.23;;;3.53;;
73575;SDS011;61859;49.204;8.140;2023-04-25T00:28:59;5.03;;;3.57;;
73575;SDS011;61859;49.204;8.140;2023-04-25T00:31:25;3.40;;;3.00;;
73575;SDS011;61859;49.204;8.140;2023-04-25T00:33:51;3.27;;;2.97;;
73575;SDS011;61859;49.204;8.140;2023-04-25T00:36:18;3.53;;;2.93;;
73575;SDS011;61859;49.204;8.140;2023-04-25T00:38:44;3.13;;;2.83;;
73575;SDS011;61859;49.204;8.140;2023-04-25T00:41:10;3.53;;;3.10;;
73575;SDS011;61859;49.204;8.140;2023-04-25T00:43:36;3.93;;;3.50;;
73575;SDS011;61859;49.204;8.140;2023-04-25T00:46:02;4.63;;;3.73;;
73575;SDS011;61859;49.204;8.140;2023-04-25T00:48:28;8.67;;;4.03;;
73575;SDS011;61859;49.204;8.140;2023-04-25T00:50:56;4.03;;;3.10;;
73575;SDS011;61859;49.204;8.140;2023-04-25T00:53:23;4.50;;;3.10;;
73575;SDS011;61859;49.204;8.140;2023-04-25T00:55:50;3.87;;;3.47;;
73575;SDS011;61859;49.204;8.140;2023-04-25T00:58:20;3.90;;;3.27;;
73575;SDS011;61859;49.204;8.140;2023-04-25T01:00:47;4.13;;;2.80;;
73575;SDS011;61859;49.204;8.140;2023-04-25T01:03:13;3.10;;;2.80;;
73575;SDS011;61859;49.204;8.140;2023-04-25T01:05:41;3.27;;;2.97;;
73575;SDS011;61859;49.204;8.140;2023-04-25T01:08:07;3.60;;;2.80;;
73575;SDS011;61859;49.204;8.140;2023-04-25T01:10:33;3.23;;;2.93;;
73575;SDS011;61859;49.204;8.140;2023-04-25T01:12:59;5.03;;;2.80;;
73575;SDS011;61859;49.204;8.140;2023-04-25T01:15:25;3.87;;;2.60;;
73575;SDS011;61859;49.204;8.140;2023-04-25T01:17:51;3.07;;;2.70;;
73575;SDS011;61859;49.204;8.140;2023-04-25T01:20:18;2.93;;;2.63;;
73575;SDS011;61859;49.204;8.140;2023-04-25T01:22:47;3.93;;;2.70;;
73575;SDS011;61859;49.204;8.140;2023-04-25T01:25:13;4.30;;;2.93;;
73575;SDS011;61859;49.204;8.140;2023-04-25T01:27:39;2.47;;;2.27;;
73575;SDS011;61859;49.204;8.140;2023-04-25T01:30:06;2.93;;;2.67;;
73575;SDS011;61859;49.204;8.140;2023-04-25T01:32:32;2.57;;;2.37;;
73575;SDS011;61859;49.204;8.140;2023-04-25T01:35:05;3.67;;;2.53;;
73575;SDS011;61859;49.204;8.140;2023-04-25T01:37:34;3.00;;;2.70;;
73575;SDS011;61859;49.204;8.140;2023-04-25T01:40:01;3.37;;;2.97;;
73575;SDS011;61859;49.204;8.140;2023-04-25T01:42:27;3.50;;;2.30;;
73575;SDS011;61859;49.204;8.140;2023-04-25T01:44:54;3.73;;;2.47;;
73575;SDS011;61859;49.204;8.140;2023-04-25T01:47:20;3.37;;;2.90;;
73575;SDS011;61859;49.204;8.140;2023-04-25T01:49:46;2.73;;;2.53;;
73575;SDS011;61859;49.204;8.140;2023-04-25T01:52:11;3.67;;;2.63;;
73575;SDS011;61859;49.204;8.140;2023-04-25T01:54:37;2.77;;;2.57;;
73575;SDS011;61859;49.204;8.140;2023-04-25T01:57:08;3.40;;;2.50;;
73575;SDS011;61859;49.204;8.140;2023-04-25T01:59:34;3.47;;;2.60;;
73575;SDS011;61859;49.204;8.140;2023-04-25T02:02:00;3.67;;;3.03;;
73575;SDS011;61859;49.204;8.140;2023-04-25T02:04:28;2.80;;;2.60;;
73575;SDS011;61859;49.204;8.140;2023-04-25T02:06:54;3.50;;;3.17;;
73575;SDS011;61859;49.204;8.140;2023-04-25T02:09:20;3.73;;;3.40;;
73575;SDS011;61859;49.204;8.140;2023-04-25T02:11:46;2.93;;;2.60;;
73575;SDS011;61859;49.204;8.140;2023-04-25T02:14:13;3.37;;;3.07;;
73575;SDS011;61859;49.204;8.140;2023-04-25T02:16:39;3.40;;;3.07;;
73575;SDS011;61859;49.204;8.140;2023-04-25T02:19:05;4.80;;;3.13;;
73575;SDS011;61859;49.204;8.140;2023-04-25T02:21:31;3.23;;;2.90;;
73575;SDS011;61859;49.204;8.140;2023-04-25T02:24:00;3.00;;;2.80;;
73575;SDS011;61859;49.204;8.140;2023-04-25T02:26:26;3.17;;;2.70;;
73575;SDS011;61859;49.204;8.140;2023-04-25T02:28:52;4.00;;;3.43;;
73575;SDS011;61859;49.204;8.140;2023-04-25T02:31:18;3.13;;;2.80;;
73575;SDS011;61859;49.204;8.140;2023-04-25T02:33:44;3.30;;;3.00;;
73575;SDS011;61859;49.204;8.140;2023-04-25T02:36:10;3.33;;;3.03;;
73575;SDS011;61859;49.204;8.140;2023-04-25T02:38:36;5.13;;;3.07;;
73575;SDS011;61859;49.204;8.140;2023-04-25T02:41:02;4.57;;;3.00;;
73575;SDS011;61859;49.204;8.140;2023-04-25T02:43:28;3.47;;;3.07;;
73575;SDS011;61859;49.204;8.140;2023-04-25T02:45:54;3.97;;;3.20;;
73575;SDS011;61859;49.204;8.140;2023-04-25T02:48:20;3.23;;;2.90;;
73575;SDS011;61859;49.204;8.140;2023-04-25T02:50:46;4.73;;;3.33;;
73575;SDS011;61859;49.204;8.140;2023-04-25T02:53:12;4.03;;;3.60;;
73575;SDS011;61859;49.204;8.140;2023-04-25T02:55:38;3.73;;;3.33;;
73575;SDS011;61859;49.204;8.140;2023-04-25T02:58:04;3.97;;;3.57;;
73575;SDS011;61859;49.204;8.140;2023-04-25T03:00:30;3.73;;;3.30;;
73575;SDS011;61859;49.204;8.140;2023-04-25T03:02:56;5.53;;;3.37;;
73575;SDS011;61859;49.204;8.140;2023-04-25T03:05:22;4.33;;;3.17;;
73575;SDS011;61859;49.204;8.140;2023-04-25T03:07:48;4.80;;;3.33;;
73575;SDS011;61859;49.204;8.140;2023-04-25T03:10:14;3.23;;;2.93;;
73575;SDS011;61859;49.204;8.140;2023-04-25T03:12:40;3.60;;;3.30;;
73575;SDS011;61859;49.204;8.140;2023-04-25T03:15:06;3.23;;;2.83;;
73575;SDS011;61859;49.204;8.140;2023-04-25T03:17:32;7.30;;;3.30;;
73575;SDS011;61859;49.204;8.140;2023-04-25T03:19:58;3.47;;;3.17;;
73575;SDS011;61859;49.204;8.140;2023-04-25T03:22:24;3.50;;;3.00;;
73575;SDS011;61859;49.204;8.140;2023-04-25T03:24:50;5.50;;;3.80;;
73575;SDS011;61859;49.204;8.140;2023-04-25T03:27:16;4.20;;;3.70;;
73575;SDS011;61859;49.204;8.140;2023-04-25T03:29:43;3.77;;;3.30;;
73575;SDS011;61859;49.204;8.140;2023-04-25T03:32:09;6.23;;;3.13;;
73575;SDS011;61859;49.204;8.140;2023-04-25T03:34:34;4.43;;;3.23;;
73575;SDS011;61859;49.204;8.140;2023-04-25T03:37:00;3.47;;;3.13;;
73575;SDS011;61859;49.204;8.140;2023-04-25T03:39:26;4.03;;;3.57;;
73575;SDS011;61859;49.204;8.140;2023-04-25T03:41:52;3.20;;;2.90;;
73575;SDS011;61859;49.204;8.140;2023-04-25T03:44:18;3.93;;;3.30;;
73575;SDS011;61859;49.204;8.140;2023-04-25T03:46:44;3.27;;;2.97;;
73575;SDS011;61859;49.204;8.140;2023-04-25T03:49:10;3.70;;;3.37;;
73575;SDS011;61859;49.204;8.140;2023-04-25T03:51:36;3.67;;;3.00;;
73575;SDS011;61859;49.204;8.140;2023-04-25T03:54:02;3.43;;;2.97;;
73575;SDS011;61859;49.204;8.140;2023-04-25T03:56:28;3.50;;;3.10;;
73575;SDS011;61859;49.204;8.140;2023-04-25T03:58:54;4.43;;;3.30;;
73575;SDS011;61859;49.204;8.140;2023-04-25T04:01:20;3.90;;;3.50;;
73575;SDS011;61859;49.204;8.140;2023-04-25T04:03:46;4.57;;;3.73;;
73575;SDS011;61859;49.204;8.140;2023-04-25T04:06:12;10.60;;;3.67;;
73575;SDS011;61859;49.204;8.140;2023-04-25T04:08:38;3.77;;;3.40;;
73575;SDS011;61859;49.204;8.140;2023-04-25T04:11:04;4.17;;;3.40;;
73575;SDS011;61859;49.204;8.140;2023-04-25T04:13:30;4.13;;;3.70;;
73575;SDS011;61859;49.204;8.140;2023-04-25T04:15:56;5.37;;;4.37;;
73575;SDS011;61859;49.204;8.140;2023-04-25T04:18:22;4.70;;;4.00;;
73575;SDS011;61859;49.204;8.140;2023-04-25T04:20:48;5.00;;;4.50;;
73575;SDS011;61859;49.204;8.140;2023-04-25T04:23:14;4.93;;;4.03;;
73575;SDS011;61859;49.204;8.140;2023-04-25T04:25:40;4.30;;;3.90;;
73575;SDS011;61859;49.204;8.140;2023-04-25T04:28:06;4.53;;;3.77;;
73575;SDS011;61859;49.204;8.140;2023-04-25T04:30:32;6.10;;;4.53;;
73575;SDS011;61859;49.204;8.140;2023-04-25T04:33:01;5.37;;;4.60;;
73575;SDS011;61859;49.204;8.140;2023-04-25T04:35:27;5.30;;;4.43;;
73575;SDS011;61859;49.204;8.140;2023-04-25T04:37:53;6.43;;;4.73;;
73575;SDS011;61859;49.204;8.140;2023-04-25T04:40:19;5.03;;;4.53;;
73575;SDS011;61859;49.204;8.140;2023-04-25T04:42:46;6.00;;;4.30;;
73575;SDS011;61859;49.204;8.140;2023-04-25T04:45:13;5.27;;;4.40;;
73575;SDS011;61859;49.204;8.140;2023-04-25T04:47:39;4.70;;;3.77;;
73575;SDS011;61859;49.204;8.140;2023-04-25T04:50:06;5.87;;;4.43;;
73575;SDS011;61859;49.204;8.140;2023-04-25T04:52:33;5.93;;;4.17;;
73575;SDS011;61859;49.204;8.140;2023-04-25T04:54:59;4.77;;;4.10;;
73575;SDS011;61859;49.204;8.140;2023-04-25T04:57:25;5.63;;;4.50;;
73575;SDS011;61859;49.204;8.140;2023-04-25T04:59:51;7.67;;;4.97;;
73575;SDS011;61859;49.204;8.140;2023-04-25T05:02:18;5.07;;;4.57;;
73575;SDS011;61859;49.204;8.140;2023-04-25T05:04:44;6.53;;;5.27;;
73575;SDS011;61859;49.204;8.140;2023-04-25T05:07:10;7.43;;;5.63;;
73575;SDS011;61859;49.204;8.140;2023-04-25T05:09:36;5.10;;;4.60;;
73575;SDS011;61859;49.204;8.140;2023-04-25T05:12:02;5.73;;;5.10;;
73575;SDS011;61859;49.204;8.140;2023-04-25T05:14:28;6.17;;;5.47;;
73575;SDS011;61859;49.204;8.140;2023-04-25T05:16:54;6.67;;;5.53;;
73575;SDS011;61859;49.204;8.140;2023-04-25T05:19:20;5.30;;;4.80;;
73575;SDS011;61859;49.204;8.140;2023-04-25T05:21:46;5.87;;;5.23;;
73575;SDS011;61859;49.204;8.140;2023-04-25T05:24:12;7.43;;;5.53;;
73575;SDS011;61859;49.204;8.140;2023-04-25T05:26:39;4.60;;;4.10;;
73575;SDS011;61859;49.204;8.140;2023-04-25T05:29:05;5.17;;;4.67;;
73575;SDS011;61859;49.204;8.140;2023-04-25T05:34:40;7.17;;;5.33;;
73575;SDS011;61859;49.204;8.140;2023-04-25T05:37:07;7.27;;;5.67;;
73575;SDS011;61859;49.204;8.140;2023-04-25T05:39:33;5.40;;;4.90;;
73575;SDS011;61859;49.204;8.140;2023-04-25T05:41:58;6.23;;;5.43;;
73575;SDS011;61859;49.204;8.140;2023-04-25T05:44:26;6.03;;;5.37;;
73575;SDS011;61859;49.204;8.140;2023-04-25T05:46:52;6.10;;;5.40;;
73575;SDS011;61859;49.204;8.140;2023-04-25T05:49:18;6.20;;;5.60;;
73575;SDS011;61859;49.204;8.140;2023-04-25T05:51:44;6.53;;;5.30;;
73575;SDS011;61859;49.204;8.140;2023-04-25T05:54:10;7.83;;;5.90;;
73575;SDS011;61859;49.204;8.140;2023-04-25T05:56:36;6.93;;;6.00;;
73575;SDS011;61859;49.204;8.140;2023-04-25T05:59:02;9.87;;;6.00;;
73575;SDS011;61859;49.204;8.140;2023-04-25T06:01:28;8.53;;;6.63;;
73575;SDS011;61859;49.204;8.140;2023-04-25T06:03:54;8.53;;;7.03;;
73575;SDS011;61859;49.204;8.140;2023-04-25T06:06:20;7.93;;;6.17;;
73575;SDS011;61859;49.204;8.140;2023-04-25T06:08:46;7.47;;;6.40;;
73575;SDS011;61859;49.204;8.140;2023-04-25T06:11:12;8.07;;;6.60;;
73575;SDS011;61859;49.204;8.140;2023-04-25T06:13:38;6.87;;;6.03;;
73575;SDS011;61859;49.204;8.140;2023-04-25T06:16:04;7.30;;;6.20;;
73575;SDS011;61859;49.204;8.140;2023-04-25T06:18:30;7.43;;;6.57;;
73575;SDS011;61859;49.204;8.140;2023-04-25T06:20:56;7.97;;;6.97;;
73575;SDS011;61859;49.204;8.140;2023-04-25T06:23:22;9.23;;;7.00;;
73575;SDS011;61859;49.204;8.140;2023-04-25T06:25:48;8.60;;;6.90;;
73575;SDS011;61859;49.204;8.140;2023-04-25T06:28:14;7.63;;;6.83;;
73575;SDS011;61859;49.204;8.140;2023-04-25T06:30:40;10.47;;;7.33;;
73575;SDS011;61859;49.204;8.140;2023-04-25T06:33:06;9.37;;;7.10;;
73575;SDS011;61859;49.204;8.140;2023-04-25T06:35:33;9.67;;;7.20;;
73575;SDS011;61859;49.204;8.140;2023-04-25T06:37:59;11.30;;;6.97;;
73575;SDS011;61859;49.204;8.140;2023-04-25T06:40:25;9.47;;;7.20;;
73575;SDS011;61859;49.204;8.140;2023-04-25T06:42:51;12.57;;;8.57;;
73575;SDS011;61859;49.204;8.140;2023-04-25T06:45:17;10.43;;;8.00;;
73575;SDS011;61859;49.204;8.140;2023-04-25T06:47:43;7.23;;;6.37;;
73575;SDS011;61859;49.204;8.140;2023-04-25T06:50:09;10.53;;;7.60;;
73575;SDS011;61859;49.204;8.140;2023-04-25T06:52:36;8.07;;;6.13;;
73575;SDS011;61859;49.204;8.140;2023-04-25T06:55:02;8.77;;;5.50;;
73575;SDS011;61859;49.204;8.140;2023-04-25T06:57:28;7.83;;;5.77;;
73575;SDS011;61859;49.204;8.140;2023-04-25T06:59:54;8.70;;;6.03;;
73575;SDS011;61859;49.204;8.140;2023-04-25T07:02:20;11.13;;;6.47;;
73575;SDS011;61859;49.204;8.140;2023-04-25T07:04:47;9.50;;;6.67;;
73575;SDS011;61859;49.204;8.140;2023-04-25T07:07:13;8.37;;;7.00;;
73575;SDS011;61859;49.204;8.140;2023-04-25T07:09:39;11.77;;;6.53;;
73575;SDS011;61859;49.204;8.140;2023-04-25T07:12:05;9.83;;;7.30;;
73575;SDS011;61859;49.204;8.140;2023-04-25T07:14:31;9.73;;;7.10;;
73575;SDS011;61859;49.204;8.140;2023-04-25T07:16:57;10.20;;;6.77;;
73575;SDS011;61859;49.204;8.140;2023-04-25T07:19:23;10.17;;;6.20;;
73575;SDS011;61859;49.204;8.140;2023-04-25T07:21:51;8.13;;;6.83;;
73575;SDS011;61859;49.204;8.140;2023-04-25T07:24:17;8.00;;;6.43;;
73575;SDS011;61859;49.204;8.140;2023-04-25T07:26:43;12.23;;;6.90;;
73575;SDS011;61859;49.204;8.140;2023-04-25T07:29:09;10.40;;;7.10;;
73575;SDS011;61859;49.204;8.140;2023-04-25T07:31:35;7.70;;;5.77;;
73575;SDS011;61859;49.204;8.140;2023-04-25T07:34:01;7.30;;;5.33;;
73575;SDS011;61859;49.204;8.140;2023-04-25T07:36:27;5.80;;;5.10;;
73575;SDS011;61859;49.204;8.140;2023-04-25T07:38:53;5.80;;;5.00;;
73575;SDS011;61859;49.204;8.140;2023-04-25T07:41:19;7.07;;;5.57;;
73575;SDS011;61859;49.204;8.140;2023-04-25T07:43:45;8.20;;;5.47;;
73575;SDS011;61859;49.204;8.140;2023-04-25T07:46:11;7.70;;;6.00;;
73575;SDS011;61859;49.204;8.140;2023-04-25T07:48:37;8.70;;;6.23;;
73575;SDS011;61859;49.204;8.140;2023-04-25T07:51:03;8.07;;;6.20;;
73575;SDS011;61859;49.204;8.140;2023-04-25T07:53:30;9.33;;;6.40;;
73575;SDS011;61859;49.204;8.140;2023-04-25T07:55:57;7.23;;;6.23;;
73575;SDS011;61859;49.204;8.140;2023-04-25T07:58:23;8.10;;;5.07;;
73575;SDS011;61859;49.204;8.140;2023-04-25T08:00:49;7.43;;;5.40;;
73575;SDS011;61859;49.204;8.140;2023-04-25T08:03:15;7.23;;;5.13;;
73575;SDS011;61859;49.204;8.140;2023-04-25T08:05:41;6.50;;;5.70;;
73575;SDS011;61859;49.204;8.140;2023-04-25T08:08:07;6.07;;;5.33;;
73575;SDS011;61859;49.204;8.140;2023-04-25T08:10:33;6.07;;;5.10;;
73575;SDS011;61859;49.204;8.140;2023-04-25T08:12:59;6.43;;;5.60;;
73575;SDS011;61859;49.204;8.140;2023-04-25T08:15:25;7.47;;;5.97;;
73575;SDS011;61859;49.204;8.140;2023-04-25T08:17:51;6.87;;;5.80;;
73575;SDS011;61859;49.204;8.140;2023-04-25T08:20:17;8.40;;;5.70;;
73575;SDS011;61859;49.204;8.140;2023-04-25T08:22:43;8.90;;;6.07;;
73575;SDS011;61859;49.204;8.140;2023-04-25T08:25:09;8.87;;;4.83;;
73575;SDS011;61859;49.204;8.140;2023-04-25T08:27:35;9.00;;;5.40;;
73575;SDS011;61859;49.204;8.140;2023-04-25T08:30:02;11.77;;;6.33;;
73575;SDS011;61859;49.204;8.140;2023-04-25T08:32:28;9.67;;;6.17;;
73575;SDS011;61859;49.204;8.140;2023-04-25T08:34:54;13.20;;;6.33;;
73575;SDS011;61859;49.204;8.140;2023-04-25T08:37:20;10.30;;;5.97;;
73575;SDS011;61859;49.204;8.140;2023-04-25T08:39:46;11.73;;;6.20;;
73575;SDS011;61859;49.204;8.140;2023-04-25T08:42:13;13.10;;;6.43;;
73575;SDS011;61859;49.204;8.140;2023-04-25T08:44:40;11.50;;;6.03;;
73575;SDS011;61859;49.204;8.140;2023-04-25T08:47:06;7.73;;;5.70;;
73575;SDS011;61859;49.204;8.140;2023-04-25T08:49:32;10.70;;;6.20;;
73575;SDS011;61859;49.204;8.140;2023-04-25T08:52:02;11.90;;;6.00;;
73575;SDS011;61859;49.204;8.140;2023-04-25T08:54:31;10.10;;;6.20;;
73575;SDS011;61859;49.204;8.140;2023-04-25T08:56:57;10.20;;;5.83;;
73575;SDS011;61859;49.204;8.140;2023-04-25T08:59:27;8.90;;;6.60;;
73575;SDS011;61859;49.204;8.140;2023-04-25T09:01:53;12.83;;;6.00;;
73575;SDS011;61859;49.204;8.140;2023-04-25T09:04:19;6.63;;;5.37;;
73575;SDS011;61859;49.204;8.140;2023-04-25T09:06:45;9.17;;;5.63;;
73575;SDS011;61859;49.204;8.140;2023-04-25T09:09:11;8.53;;;5.23;;
73575;SDS011;61859;49.204;8.140;2023-04-25T09:11:37;8.53;;;4.60;;
73575;SDS011;61859;49.204;8.140;2023-04-25T09:14:16;7.70;;;4.83;;
73575;SDS011;61859;49.204;8.140;2023-04-25T09:21:57;11.57;;;5.23;;
73575;SDS011;61859;49.204;8.140;2023-04-25T09:24:36;8.90;;;5.67;;
73575;SDS011;61859;49.204;8.140;2023-04-25T09:27:03;10.83;;;5.50;;
73575;SDS011;61859;49.204;8.140;2023-04-25T09:29:30;8.93;;;5.20;;
73575;SDS011;61859;49.204;8.140;2023-04-25T09:34:52;10.90;;;5.17;;
73575;SDS011;61859;49.204;8.140;2023-04-25T09:39:52;9.80;;;5.37;;
73575;SDS011;61859;49.204;8.140;2023-04-25T09:42:21;8.23;;;5.33;;
73575;SDS011;61859;49.204;8.140;2023-04-25T09:44:47;9.43;;;5.70;;
73575;SDS011;61859;49.204;8.140;2023-04-25T09:47:14;13.37;;;5.93;;
73575;SDS011;61859;49.204;8.140;2023-04-25T09:49:41;13.03;;;6.53;;
73575;SDS011;61859;49.204;8.140;2023-04-25T09:52:08;7.70;;;5.43;;
73575;SDS011;61859;49.204;8.140;2023-04-25T09:54:34;12.63;;;6.20;;
73575;SDS011;61859;49.204;8.140;2023-04-25T09:57:07;9.93;;;4.93;;
73575;SDS011;61859;49.204;8.140;2023-04-25T09:59:33;11.23;;;5.37;;
73575;SDS011;61859;49.204;8.140;2023-04-25T10:02:00;6.47;;;5.40;;
73575;SDS011;61859;49.204;8.140;2023-04-25T10:04:27;15.43;;;5.47;;
73575;SDS011;61859;49.204;8.140;2023-04-25T10:06:54;10.87;;;5.70;;
73575;SDS011;61859;49.204;8.140;2023-04-25T10:09:23;9.73;;;5.33;;
73575;SDS011;61859;49.204;8.140;2023-04-25T10:11:51;11.23;;;5.63;;
73575;SDS011;61859;49.204;8.140;2023-04-25T10:14:18;7.80;;;5.07;;
73575;SDS011;61859;49.204;8.140;2023-04-25T10:16:45;7.40;;;5.23;;
73575;SDS011;61859;49.204;8.140;2023-04-25T10:19:11;8.20;;;5.00;;
73575;SDS011;61859;49.204;8.140;2023-04-25T10:21:42;7.63;;;5.20;;
73575;SDS011;61859;49.204;8.140;2023-04-25T10:24:10;9.57;;;5.37;;
73575;SDS011;61859;49.204;8.140;2023-04-25T10:26:36;10.43;;;6.00;;
73575;SDS011;61859;49.204;8.140;2023-04-25T10:29:03;9.70;;;5.73;;
73575;SDS011;61859;49.204;8.140;2023-04-25T10:31:29;10.60;;;5.83;;
73575;SDS011;61859;49.204;8.140;2023-04-25T10:33:56;9.87;;;6.33;;
73575;SDS011;61859;49.204;8.140;2023-04-25T10:36:22;14.87;;;6.77;;
73575;SDS011;61859;49.204;8.140;2023-04-25T10:38:49;11.30;;;6.90;;
73575;SDS011;61859;49.204;8.140;2023-04-25T10:41:17;10.63;;;6.37;;
73575;SDS011;61859;49.204;8.140;2023-04-25T10:43:44;6.30;;;4.57;;
73575;SDS011;61859;49.204;8.140;2023-04-25T10:46:26;6.03;;;4.23;;
73575;SDS011;61859;49.204;8.140;2023-04-25T10:48:55;3.53;;;3.00;;
73575;SDS011;61859;49.204;8.140;2023-04-25T10:51:22;3.97;;;2.80;;
73575;SDS011;61859;49.204;8.140;2023-04-25T10:56:27;3.03;;;1.97;;
73575;SDS011;61859;49.204;8.140;2023-04-25T11:01:36;6.57;;;3.27;;
73575;SDS011;61859;49.204;8.140;2023-04-25T11:04:02;3.00;;;2.70;;
73575;SDS011;61859;49.204;8.140;2023-04-25T11:06:29;3.53;;;2.83;;
73575;SDS011;61859;49.204;8.140;2023-04-25T11:08:59;2.63;;;2.43;;
73575;SDS011;61859;49.204;8.140;2023-04-25T11:11:25;3.47;;;2.80;;
73575;SDS011;61859;49.204;8.140;2023-04-25T11:13:52;4.10;;;2.70;;
73575;SDS011;61859;49.204;8.140;2023-04-25T11:16:18;2.93;;;2.63;;
73575;SDS011;61859;49.204;8.140;2023-04-25T11:18:44;3.77;;;2.30;;
73575;SDS011;61859;49.204;8.140;2023-04-25T11:21:10;3.73;;;2.40;;
73575;SDS011;61859;49.204;8.140;2023-04-25T11:23:36;2.23;;;2.10;;
73575;SDS011;61859;49.204;8.140;2023-04-25T11:26:03;3.93;;;2.17;;
73575;SDS011;61859;49.204;8.140;2023-04-25T11:28:29;2.53;;;2.10;;
73575;SDS011;61859;49.204;8.140;2023-04-25T11:30:55;2.83;;;2.53;;
73575;SDS011;61859;49.204;8.140;2023-04-25T11:33:25;2.50;;;2.00;;
73575;SDS011;61859;49.204;8.140;2023-04-25T11:35:54;3.80;;;1.93;;
73575;SDS011;61859;49.204;8.140;2023-04-25T11:38:24;3.03;;;2.37;;
73575;SDS011;61859;49.204;8.140;2023-04-25T11:40:51;3.73;;;2.97;;
73575;SDS011;61859;49.204;8.140;2023-04-25T11:43:17;2.90;;;2.60;;
73575;SDS011;61859;49.204;8.140;2023-04-25T11:45:49;4.20;;;3.10;;
73575;SDS011;61859;49.204;8.140;2023-04-25T11:48:16;3.20;;;2.83;;
73575;SDS011;61859;49.204;8.140;2023-04-25T11:50:42;3.57;;;2.70;;
73575;SDS011;61859;49.204;8.140;2023-04-25T11:53:08;3.80;;;2.83;;
73575;SDS011;61859;49.204;8.140;2023-04-25T11:55:35;3.30;;;2.33;;
73575;SDS011;61859;49.204;8.140;2023-04-25T11:58:01;3.47;;;2.50;;
73575;SDS011;61859;49.204;8.140;2023-04-25T12:00:27;2.70;;;2.33;;
73575;SDS011;61859;49.204;8.140;2023-04-25T12:02:54;6.47;;;3.00;;
73575;SDS011;61859;49.204;8.140;2023-04-25T12:05:23;3.83;;;2.43;;
73575;SDS011;61859;49.204;8.140;2023-04-25T12:07:49;3.50;;;2.20;;
73575;SDS011;61859;49.204;8.140;2023-04-25T12:10:16;2.40;;;2.10;;
73575;SDS011;61859;49.204;8.140;2023-04-25T12:12:43;2.57;;;2.00;;
73575;SDS011;61859;49.204;8.140;2023-04-25T12:15:13;3.47;;;2.17;;
73575;SDS011;61859;49.204;8.140;2023-04-25T12:17:47;3.70;;;2.40;;
73575;SDS011;61859;49.204;8.140;2023-04-25T12:20:14;3.07;;;1.90;;
73575;SDS011;61859;49.204;8.140;2023-04-25T12:22:41;2.73;;;2.00;;
73575;SDS011;61859;49.204;8.140;2023-04-25T12:25:09;2.90;;;2.17;;
73575;SDS011;61859;49.204;8.140;2023-04-25T12:27:35;3.93;;;2.20;;
73575;SDS011;61859;49.204;8.140;2023-04-25T12:30:02;3.53;;;1.97;;
73575;SDS011;61859;49.204;8.140;2023-04-25T12:32:28;2.43;;;2.10;;
73575;SDS011;61859;49.204;8.140;2023-04-25T12:34:54;3.60;;;2.03;;
73575;SDS011;61859;49.204;8.140;2023-04-25T12:37:20;2.10;;;1.90;;
73575;SDS011;61859;49.204;8.140;2023-04-25T12:39:46;2.23;;;2.03;;
73575;SDS011;61859;49.204;8.140;2023-04-25T12:42:12;2.60;;;2.40;;
73575;SDS011;61859;49.204;8.140;2023-04-25T12:44:38;3.33;;;2.60;;
73575;SDS011;61859;49.204;8.140;2023-04-25T12:47:05;3.13;;;2.43;;
73575;SDS011;61859;49.204;8.140;2023-04-25T12:49:31;3.53;;;2.63;;
73575;SDS011;61859;49.204;8.140;2023-04-25T12:51:57;2.70;;;2.33;;
73575;SDS011;61859;49.204;8.140;2023-04-25T12:54:23;5.27;;;2.47;;
73575;SDS011;61859;49.204;8.140;2023-04-25T12:56:50;4.70;;;2.93;;
73575;SDS011;61859;49.204;8.140;2023-04-25T12:59:17;4.57;;;3.00;;
73575;SDS011;61859;49.204;8.140;2023-04-25T13:01:44;6.30;;;2.97;;
73575;SDS011;61859;49.204;8.140;2023-04-25T13:04:10;3.20;;;2.90;;
73575;SDS011;61859;49.204;8.140;2023-04-25T13:06:36;3.33;;;3.03;;
73575;SDS011;61859;49.204;8.140;2023-04-25T13:09:02;4.50;;;2.80;;
73575;SDS011;61859;49.204;8.140;2023-04-25T13:11:28;5.93;;;2.90;;
73575;SDS011;61859;49.204;8.140;2023-04-25T13:13:55;3.73;;;2.70;;
73575;SDS011;61859;49.204;8.140;2023-04-25T13:16:21;3.33;;;2.60;;
73575;SDS011;61859;49.204;8.140;2023-04-25T13:18:47;4.13;;;3.03;;
73575;SDS011;61859;49.204;8.140;2023-04-25T13:21:13;5.83;;;2.60;;
73575;SDS011;61859;49.204;8.140;2023-04-25T13:23:39;3.80;;;2.83;;
73575;SDS011;61859;49.204;8.140;2023-04-25T13:26:07;4.07;;;2.83;;
73575;SDS011;61859;49.204;8.140;2023-04-25T13:28:33;3.60;;;2.50;;
73575;SDS011;61859;49.204;8.140;2023-04-25T13:30:59;6.80;;;3.00;;
73575;SDS011;61859;49.204;8.140;2023-04-25T13:33:25;2.90;;;2.60;;
73575;SDS011;61859;49.204;8.140;2023-04-25T13:35:51;3.47;;;2.60;;
73575;SDS011;61859;49.204;8.140;2023-04-25T13:38:22;5.07;;;2.80;;
73575;SDS011;61859;49.204;8.140;2023-04-25T13:40:49;3.80;;;2.47;;
73575;SDS011;61859;49.204;8.140;2023-04-25T13:43:16;6.60;;;2.60;;
73575;SDS011;61859;49.204;8.140;2023-04-25T13:45:42;3.07;;;2.73;;
73575;SDS011;61859;49.204;8.140;2023-04-25T13:48:08;4.03;;;2.80;;
73575;SDS011;61859;49.204;8.140;2023-04-25T13:50:34;2.93;;;2.30;;
73575;SDS011;61859;49.204;8.140;2023-04-25T13:53:00;5.00;;;2.67;;
73575;SDS011;61859;49.204;8.140;2023-04-25T13:55:26;3.23;;;2.60;;
73575;SDS011;61859;49.204;8.140;2023-04-25T13:57:52;4.07;;;2.53;;
73575;SDS011;61859;49.204;8.140;2023-04-25T14:00:18;4.43;;;2.93;;
73575;SDS011;61859;49.204;8.140;2023-04-25T14:02:45;4.63;;;2.70;;
73575;SDS011;61859;49.204;8.140;2023-04-25T14:05:11;4.17;;;2.90;;
73575;SDS011;61859;49.204;8.140;2023-04-25T14:07:37;3.10;;;2.80;;
73575;SDS011;61859;49.204;8.140;2023-04-25T14:10:04;4.77;;;2.90;;
73575;SDS011;61859;49.204;8.140;2023-04-25T14:12:30;6.23;;;2.90;;
73575;SDS011;61859;49.204;8.140;2023-04-25T14:14:57;3.03;;;2.40;;
73575;SDS011;61859;49.204;8.140;2023-04-25T14:17:23;3.27;;;2.93;;
73575;SDS011;61859;49.204;8.140;2023-04-25T14:19:49;4.90;;;3.10;;
73575;SDS011;61859;49.204;8.140;2023-04-25T14:22:15;4.67;;;3.03;;
73575;SDS011;61859;49.204;8.140;2023-04-25T14:24:41;3.03;;;2.50;;
73575;SDS011;61859;49.204;8.140;2023-04-25T14:27:07;4.70;;;2.90;;
73575;SDS011;61859;49.204;8.140;2023-04-25T14:29:33;5.07;;;3.07;;
73575;SDS011;61859;49.204;8.140;2023-04-25T14:31:59;4.33;;;2.90;;
73575;SDS011;61859;49.204;8.140;2023-04-25T14:34:25;4.17;;;3.07;;
73575;SDS011;61859;49.204;8.140;2023-04-25T14:36:52;4.30;;;3.23;;
73575;SDS011;61859;49.204;8.140;2023-04-25T14:39:18;3.70;;;3.03;;
73575;SDS011;61859;49.204;8.140;2023-04-25T14:41:44;5.10;;;3.80;;
73575;SDS011;61859;49.204;8.140;2023-04-25T14:44:10;4.07;;;3.20;;
73575;SDS011;61859;49.204;8.140;2023-04-25T14:46:36;5.33;;;3.20;;
73575;SDS011;61859;49.204;8.140;2023-04-25T14:49:02;5.10;;;3.27;;
73575;SDS011;61859;49.204;8.140;2023-04-25T14:51:29;5.73;;;3.83;;
73575;SDS011;61859;49.204;8.140;2023-04-25T14:53:55;5.37;;;3.40;;
73575;SDS011;61859;49.204;8.140;2023-04-25T14:56:21;4.23;;;2.90;;
73575;SDS011;61859;49.204;8.140;2023-04-25T14:58:47;5.57;;;2.93;;
73575;SDS011;61859;49.204;8.140;2023-04-25T15:01:13;5.10;;;3.47;;